Time;durP1;ratioP1;P1;durP2;ratioP2;P2;SDS_P1;SDS_P2;PMS_P1;PMS_P2;Temp;Humidity;BMP_temperature;BMP_pressure;BME280_temperature;BME280_humidity;BME280_pressure;Samples;Min_cycle;Max_cycle;Signal;HPM_P1;HPM_P2
2024/02/16 00:02:13;;;;;;;5.55;3.35;;;17.00;99.90;;;;;;7405601;19;20011;-79
2024/02/16 00:04:44;;;;;;;11.93;3.13;;;17.00;99.90;;;;;;7385513;19;20052;-80
2024/02/16 00:07:13;;;;;;;6.15;2.85;;;17.00;99.90;;;;;;7383999;19;20010;-78
2024/02/16 00:09:41;;;;;;;6.82;2.85;;;17.00;99.90;;;;;;7386220;19;20011;-80
2024/02/16 00:12:11;;;;;;;6.00;3.05;;;17.00;99.90;;;;;;7387657;19;20014;-80
2024/02/16 00:14:39;;;;;;;4.82;2.83;;;17.10;99.90;;;;;;7387780;19;20272;-79
2024/02/16 00:17:10;;;;;;;6.32;2.78;;;17.10;99.90;;;;;;7406858;19;20010;-79
2024/02/16 00:19:38;;;;;;;6.03;2.97;;;17.00;99.90;;;;;;7384589;19;20010;-80
2024/02/16 00:22:10;;;;;;;7.53;2.95;;;17.10;99.90;;;;;;7384862;19;20015;-79
2024/02/16 00:24:38;;;;;;;;;;;17.10;99.90;;;;;;7384419;19;20014;-79
2024/02/16 00:27:08;;;;;;;5.93;2.58;;;17.00;99.90;;;;;;7382922;19;19923;-78
2024/02/16 00:29:38;;;;;;;6.47;2.88;;;17.10;99.90;;;;;;7385875;19;20024;-80
2024/02/16 00:32:07;;;;;;;9.15;2.95;;;17.10;99.90;;;;;;7405568;19;20267;-79
2024/02/16 00:34:35;;;;;;;10.07;3.10;;;17.10;99.90;;;;;;7388428;19;20043;-79
2024/02/16 00:37:09;;;;;;;9.63;3.30;;;17.10;99.90;;;;;;7387121;19;20002;-79
2024/02/16 00:39:42;;;;;;;8.35;3.00;;;17.10;99.90;;;;;;7387207;19;20002;-80
2024/02/16 00:42:11;;;;;;;7.93;3.08;;;17.20;99.90;;;;;;7385137;19;20013;-80
2024/02/16 00:44:40;;;;;;;7.43;3.00;;;17.20;99.90;;;;;;7385536;19;20028;-79
2024/02/16 00:47:10;;;;;;;6.57;2.78;;;17.10;99.90;;;;;;7410518;19;20007;-79
2024/02/16 00:49:38;;;;;;;6.93;2.60;;;17.00;99.90;;;;;;7390035;19;20396;-78
2024/02/16 00:52:10;;;;;;;7.55;2.60;;;17.10;99.90;;;;;;7388965;19;20020;-79
2024/02/16 00:54:41;;;;;;;6.32;3.17;;;17.10;99.90;;;;;;7388961;19;19999;-79
2024/02/16 00:57:09;;;;;;;;;;;17.10;99.90;;;;;;7385349;19;20010;-81
2024/02/16 00:59:38;;;;;;;4.30;2.88;;;17.00;99.90;;;;;;7383887;19;19914;-80
2024/02/16 01:02:07;;;;;;;5.50;2.78;;;17.10;99.90;;;;;;7404717;19;20011;-80
2024/02/16 01:04:36;;;;;;;6.57;3.13;;;16.90;99.90;;;;;;7381771;19;20011;-80
2024/02/16 01:07:05;;;;;;;6.43;3.20;;;16.80;99.90;;;;;;7383295;19;20211;-79
2024/02/16 01:09:34;;;;;;;7.70;3.22;;;16.70;99.90;;;;;;7383598;19;20333;-79
2024/02/16 01:12:05;;;;;;;7.88;3.35;;;16.90;99.90;;;;;;7384398;19;20017;-79
2024/02/16 01:14:34;;;;;;;6.70;3.13;;;16.80;99.90;;;;;;7383220;19;20106;-80
2024/02/16 01:17:03;;;;;;;8.02;3.10;;;16.90;99.90;;;;;;7405345;19;20006;-80
2024/02/16 01:19:33;;;;;;;5.20;2.78;;;16.90;99.90;;;;;;7383323;19;20063;-80
2024/02/16 01:22:01;;;;;;;7.65;3.22;;;16.90;99.90;;;;;;7383646;19;20059;-81
2024/02/16 01:24:30;;;;;;;6.93;3.10;;;17.00;99.90;;;;;;7384784;19;20083;-79
2024/02/16 01:26:59;;;;;;;9.63;3.20;;;17.00;99.90;;;;;;7384730;19;20030;-79
2024/02/16 01:29:32;;;;;;;11.38;3.28;;;17.00;99.90;;;;;;7395211;19;20006;-78
2024/02/16 01:32:01;;;;;;;12.27;3.33;;;17.00;99.90;;;;;;7417363;19;20006;-79
2024/02/16 01:34:31;;;;;;;7.82;3.33;;;16.90;99.90;;;;;;7397218;19;20014;-78
2024/02/16 01:37:00;;;;;;;8.27;3.00;;;16.90;99.90;;;;;;7395337;19;20003;-79
2024/02/16 01:39:28;;;;;;;6.00;3.15;;;17.00;99.90;;;;;;7391294;19;20010;-79
2024/02/16 01:41:57;;;;;;;8.90;3.30;;;17.00;99.90;;;;;;7384641;19;20007;-79
2024/02/16 01:44:26;;;;;;;9.27;3.38;;;17.10;99.90;;;;;;7398762;19;20011;-81
2024/02/16 01:46:57;;;;;;;14.02;3.80;;;17.00;99.90;;;;;;7405225;19;20024;-79
2024/02/16 01:49:26;;;;;;;7.78;3.58;;;17.00;99.90;;;;;;7383185;19;20011;-79
2024/02/16 01:51:57;;;;;;;7.32;3.33;;;17.00;99.90;;;;;;7382408;19;20066;-79
2024/02/16 01:54:26;;;;;;;8.70;3.72;;;17.00;99.90;;;;;;7381256;19;20011;-79
2024/02/16 01:56:57;;;;;;;6.60;3.47;;;17.10;99.90;;;;;;7380654;19;20082;-79
2024/02/16 01:59:26;;;;;;;7.30;3.25;;;17.10;99.90;;;;;;7401849;19;20259;-79
2024/02/16 02:01:57;;;;;;;10.32;3.22;;;17.10;99.90;;;;;;7381709;19;20006;-79
2024/02/16 02:04:26;;;;;;;11.95;3.42;;;17.10;99.90;;;;;;7380748;19;20072;-79
2024/02/16 02:06:55;;;;;;;15.00;3.42;;;17.10;99.90;;;;;;7381982;19;20015;-79
2024/02/16 02:09:24;;;;;;;7.25;3.50;;;17.00;99.90;;;;;;7382093;19;20018;-80
2024/02/16 02:11:53;;;;;;;12.80;3.67;;;16.90;99.90;;;;;;7382260;19;20002;-79
2024/02/16 02:14:25;;;;;;;7.35;3.63;;;17.00;99.90;;;;;;7404088;19;20022;-78
2024/02/16 02:16:57;;;;;;;6.03;2.95;;;17.00;99.90;;;;;;7381158;19;20015;-79
2024/02/16 02:19:26;;;;;;;12.10;3.42;;;17.00;99.90;;;;;;7381230;19;20011;-79
2024/02/16 02:21:55;;;;;;;9.18;3.63;;;17.10;99.90;;;;;;7380379;19;20022;-78
2024/02/16 02:24:26;;;;;;;8.35;3.33;;;17.00;99.90;;;;;;7381365;19;20015;-78
2024/02/16 02:26:55;;;;;;;7.30;3.58;;;17.00;99.90;;;;;;7386724;19;20050;-80
2024/02/16 02:29:23;;;;;;;7.32;3.60;;;16.90;99.90;;;;;;7406115;19;20006;-79
2024/02/16 02:31:52;;;;;;;7.75;3.10;;;16.80;99.90;;;;;;7388308;19;20249;-78
2024/02/16 02:34:21;;;;;;;9.77;3.35;;;16.90;99.90;;;;;;7385853;19;20011;-79
2024/02/16 02:36:50;;;;;;;6.30;3.33;;;17.00;99.90;;;;;;7387925;19;20007;-79
2024/02/16 02:39:19;;;;;;;6.78;3.53;;;17.10;99.90;;;;;;7390894;19;20016;-79
2024/02/16 02:41:50;;;;;;;10.05;3.53;;;17.10;99.90;;;;;;7387428;19;20011;-78
2024/02/16 02:44:19;;;;;;;;;;;17.00;99.90;;;;;;7410554;19;20074;-79
2024/02/16 02:46:48;;;;;;;12.38;3.75;;;17.00;99.90;;;;;;7387106;19;19910;-79
2024/02/16 02:49:18;;;;;;;13.27;3.20;;;16.90;99.90;;;;;;7386617;19;19998;-79
2024/02/16 02:51:47;;;;;;;8.15;3.97;;;17.00;99.90;;;;;;7385206;19;20019;-78
2024/02/16 02:54:15;;;;;;;8.35;3.63;;;17.00;99.90;;;;;;7384697;19;20077;-79
2024/02/16 02:56:49;;;;;;;9.48;3.55;;;17.10;99.90;;;;;;7387593;19;20017;-80
2024/02/16 02:59:20;;;;;;;9.75;4.13;;;17.00;99.90;;;;;;7407801;19;20232;-80
2024/02/16 03:01:49;;;;;;;8.48;3.58;;;17.00;99.90;;;;;;7385899;19;20011;-80
2024/02/16 03:04:18;;;;;;;15.57;3.92;;;17.00;99.90;;;;;;7384095;19;19999;-80
2024/02/16 03:06:46;;;;;;;10.23;3.90;;;16.70;99.90;;;;;;7385925;19;20006;-80
2024/02/16 03:09:16;;;;;;;7.72;3.78;;;16.90;99.90;;;;;;7384078;19;20010;-80
2024/02/16 03:11:45;;;;;;;10.52;4.15;;;17.00;99.90;;;;;;7384363;19;20010;-79
2024/02/16 03:14:16;;;;;;;5.82;3.60;;;17.00;99.90;;;;;;7405003;19;20007;-79
2024/02/16 03:16:45;;;;;;;7.70;3.88;;;17.00;99.90;;;;;;7385571;19;20006;-79
2024/02/16 03:19:14;;;;;;;10.50;4.05;;;17.10;99.90;;;;;;7386566;19;20227;-79
2024/02/16 03:21:43;;;;;;;10.95;3.47;;;17.10;99.90;;;;;;7390943;19;20287;-79
2024/02/16 03:24:12;;;;;;;9.90;3.53;;;17.10;99.90;;;;;;7390111;19;20010;-79
2024/02/16 03:26:41;;;;;;;6.63;3.42;;;17.10;99.90;;;;;;7386529;19;20007;-79
2024/02/16 03:29:10;;;;;;;14.50;4.00;;;17.00;99.90;;;;;;7404890;19;20011;-79
2024/02/16 03:31:41;;;;;;;5.82;3.40;;;17.00;99.90;;;;;;7387917;19;20006;-80
2024/02/16 03:34:10;;;;;;;11.27;3.60;;;17.00;99.90;;;;;;7389173;19;20010;-80
2024/02/16 03:36:40;;;;;;;9.18;3.53;;;17.00;99.90;;;;;;7387921;19;20013;-79
2024/02/16 03:39:09;;;;;;;9.02;3.72;;;17.00;99.90;;;;;;7386879;19;20002;-80
2024/02/16 03:41:38;;;;;;;10.68;3.75;;;16.90;99.90;;;;;;7407645;19;20003;-79
2024/02/16 03:44:07;;;;;;;10.57;3.60;;;17.00;99.90;;;;;;7384806;19;20011;-79
2024/02/16 03:46:37;;;;;;;9.13;3.75;;;16.90;99.90;;;;;;7385986;19;20015;-79
2024/02/16 03:49:08;;;;;;;10.88;3.80;;;17.00;99.90;;;;;;7386277;19;20425;-79
2024/02/16 03:51:37;;;;;;;9.02;3.63;;;17.00;99.90;;;;;;7384482;19;20016;-80
2024/02/16 03:54:06;;;;;;;7.32;3.55;;;17.00;99.90;;;;;;7393019;19;20126;-80
2024/02/16 03:56:35;;;;;;;10.10;3.72;;;17.00;99.90;;;;;;7415844;19;20059;-79
2024/02/16 03:59:05;;;;;;;8.25;3.65;;;17.00;99.90;;;;;;7396086;19;20017;-79
2024/02/16 04:01:33;;;;;;;9.10;3.47;;;17.00;99.90;;;;;;7398200;19;20006;-80
2024/02/16 04:04:03;;;;;;;7.57;3.53;;;16.90;99.90;;;;;;7397310;19;20024;-78
2024/02/16 04:06:34;;;;;;;9.25;4.22;;;17.00;99.90;;;;;;7393910;19;19998;-79
2024/02/16 04:09:03;;;;;;;8.63;3.40;;;17.00;99.90;;;;;;7386650;19;20007;-79
2024/02/16 04:11:32;;;;;;;6.95;3.88;;;17.00;99.90;;;;;;7407999;19;20011;-78
2024/02/16 04:14:00;;;;;;;9.18;4.05;;;17.10;99.90;;;;;;7384106;19;20383;-78
2024/02/16 04:16:29;;;;;;;10.02;3.72;;;17.10;99.90;;;;;;7387142;19;20374;-79
2024/02/16 04:18:58;;;;;;;12.40;3.78;;;17.00;99.90;;;;;;7387482;19;20032;-79
2024/02/16 04:21:26;;;;;;;13.20;3.72;;;17.00;99.90;;;;;;7384180;19;20002;-78
2024/02/16 04:23:58;;;;;;;12.80;3.55;;;17.00;99.90;;;;;;7381380;19;20035;-79
2024/02/16 04:26:26;;;;;;;8.68;3.97;;;16.80;99.90;;;;;;7403234;19;20007;-78
2024/02/16 04:28:53;;;;;;;9.10;3.30;;;16.80;99.90;;;;;;7385049;19;20017;-78
2024/02/16 04:31:22;;;;;;;13.88;4.30;;;16.70;99.90;;;;;;7387007;19;20013;-78
2024/02/16 04:33:51;;;;;;;14.70;3.60;;;16.80;99.90;;;;;;7386731;19;20011;-79
2024/02/16 04:36:20;;;;;;;12.75;3.78;;;16.50;99.90;;;;;;7382037;19;20362;-79
2024/02/16 04:38:48;;;;;;;10.00;3.45;;;16.70;99.90;;;;;;7380497;19;20365;-79
2024/02/16 04:41:22;;;;;;;8.73;3.38;;;16.80;99.90;;;;;;7404322;19;20010;-79
2024/02/16 04:43:50;;;;;;;9.35;3.95;;;16.70;99.90;;;;;;7381742;19;20038;-79
2024/02/16 04:46:19;;;;;;;11.45;3.70;;;16.80;99.90;;;;;;7381873;19;20020;-78
2024/02/16 04:48:48;;;;;;;11.63;3.72;;;16.70;99.90;;;;;;7382060;19;20019;-78
2024/02/16 04:51:17;;;;;;;11.77;4.03;;;16.70;99.90;;;;;;7381099;19;20027;-78
2024/02/16 04:53:46;;;;;;;9.00;4.07;;;16.60;99.90;;;;;;7401490;19;20010;-78
2024/02/16 04:56:15;;;;;;;15.98;4.22;;;16.80;99.90;;;;;;7382289;19;20010;-78
2024/02/16 04:58:46;;;;;;;10.70;3.90;;;16.30;99.90;;;;;;7381832;19;20427;-78
2024/02/16 05:01:15;;;;;;;;;;;16.50;99.90;;;;;;7383187;19;20018;-79
2024/02/16 05:03:50;;;;;;;11.90;4.40;;;16.70;99.90;;;;;;7382171;19;19903;-78
2024/02/16 05:06:46;;;;;;;;;;;;;;;;;;;;;
2024/02/16 05:12:48;;;;;;;8.75;3.50;;;16.80;99.90;;;;;;7382908;19;20010;-79
2024/02/16 05:15:22;;;;;;;12.07;4.00;;;16.90;99.90;;;;;;7388079;19;20082;-80
2024/02/16 05:18:27;;;;;;;15.35;4.80;;;16.60;99.90;;;;;;7404277;19;20035;-80
2024/02/16 05:20:56;;;;;;;16.98;4.05;;;16.80;99.90;;;;;;7279119;19;2004504;-79
2024/02/16 05:23:42;;;;;;;12.60;4.32;;;16.80;99.90;;;;;;7404279;19;20451;-79
2024/02/16 05:26:13;;;;;;;13.50;4.20;;;16.80;99.90;;;;;;7382815;19;20002;-78
2024/02/16 05:28:41;;;;;;;9.07;3.60;;;16.60;99.90;;;;;;7384845;19;20007;-79
2024/02/16 05:31:21;;;;;;;14.35;4.85;;;16.70;99.90;;;;;;7382134;19;20011;-78
2024/02/16 05:33:54;;;;;;;11.85;4.28;;;16.80;99.90;;;;;;7380406;19;20030;-78
2024/02/16 05:36:25;;;;;;;13.05;4.13;;;16.70;99.90;;;;;;7381945;19;20007;-78
2024/02/16 05:38:59;;;;;;;11.60;3.92;;;16.80;99.90;;;;;;7401894;19;20027;-79
2024/02/16 05:41:27;;;;;;;10.50;4.55;;;16.80;99.90;;;;;;7380280;19;20436;-78
2024/02/16 05:43:56;;;;;;;18.27;4.63;;;16.70;99.90;;;;;;7380568;19;20025;-77
2024/02/16 05:46:27;;;;;;;13.30;4.10;;;16.70;99.90;;;;;;7380293;19;20003;-77
2024/02/16 05:48:56;;;;;;;15.25;4.45;;;16.80;99.90;;;;;;7379346;19;20019;-78
2024/02/16 05:51:25;;;;;;;19.83;4.57;;;16.80;99.90;;;;;;7379765;19;20024;-78
2024/02/16 05:53:56;;;;;;;16.20;4.38;;;16.90;99.90;;;;;;7401061;19;20329;-80
2024/02/16 05:56:27;;;;;;;15.93;4.00;;;16.90;99.90;;;;;;7380987;19;20170;-80
2024/02/16 05:58:56;;;;;;;21.02;4.43;;;17.00;99.90;;;;;;7378115;19;20014;-80
2024/02/16 06:01:28;;;;;;;10.63;4.45;;;16.70;99.90;;;;;;7380086;19;20272;-77
2024/02/16 06:03:56;;;;;;;10.93;4.55;;;16.90;99.90;;;;;;7381240;19;20011;-77
2024/02/16 06:06:25;;;;;;;18.55;4.82;;;16.90;99.90;;;;;;7389024;19;20023;-80
2024/02/16 06:08:54;;;;;;;11.77;4.35;;;17.00;99.90;;;;;;7413916;19;20027;-78
2024/02/16 06:11:22;;;;;;;13.05;4.65;;;17.10;99.90;;;;;;7390925;19;20248;-79
2024/02/16 06:13:51;;;;;;;15.70;4.25;;;17.10;99.90;;;;;;7387704;19;20007;-79
2024/02/16 06:16:20;;;;;;;14.50;4.30;;;17.10;99.90;;;;;;7390782;19;20015;-78
2024/02/16 06:18:51;;;;;;;16.90;4.47;;;17.10;99.90;;;;;;7392350;19;20010;-79
2024/02/16 06:21:20;;;;;;;;;;;17.00;99.90;;;;;;7395849;19;20010;-79
2024/02/16 06:23:48;;;;;;;17.13;4.70;;;17.10;99.90;;;;;;7422709;19;19914;-79
2024/02/16 06:26:17;;;;;;;17.52;4.57;;;17.00;99.90;;;;;;7397720;19;20080;-79
2024/02/16 06:28:45;;;;;;;18.63;4.53;;;17.00;99.90;;;;;;7402170;19;20010;-79
2024/02/16 06:31:16;;;;;;;15.27;4.70;;;17.00;99.90;;;;;;7401487;19;20003;-78
2024/02/16 06:33:44;;;;;;;17.90;4.72;;;16.90;99.90;;;;;;7398296;19;20007;-79
2024/02/16 06:36:16;;;;;;;15.57;4.95;;;17.00;99.90;;;;;;7385082;19;19999;-78
2024/02/16 06:38:44;;;;;;;21.02;5.15;;;17.00;99.90;;;;;;7410135;19;20101;-79
2024/02/16 06:41:15;;;;;;;19.65;4.65;;;17.00;99.90;;;;;;7387145;19;20006;-79
2024/02/16 06:43:44;;;;;;;14.95;4.70;;;17.00;99.90;;;;;;7387337;19;20006;-79
2024/02/16 06:46:13;;;;;;;13.70;3.90;;;17.00;99.90;;;;;;7387287;19;20370;-78
2024/02/16 06:48:41;;;;;;;15.10;4.40;;;17.10;99.90;;;;;;7385705;19;20024;-79
2024/02/16 06:51:10;;;;;;;12.32;4.68;;;17.00;99.90;;;;;;7386856;19;20070;-78
2024/02/16 06:53:42;;;;;;;11.73;3.38;;;16.90;99.90;;;;;;7405570;19;20007;-78
2024/02/16 06:56:11;;;;;;;18.48;3.78;;;16.60;99.90;;;;;;7386624;19;20051;-79
2024/02/16 06:58:39;;;;;;;16.63;4.47;;;16.80;99.90;;;;;;7386001;19;20346;-79
2024/02/16 07:01:08;;;;;;;17.38;4.50;;;16.70;99.90;;;;;;7388041;19;20019;-78
2024/02/16 07:03:38;;;;;;;17.55;4.03;;;16.80;99.90;;;;;;7387555;19;20360;-78
2024/02/16 07:06:09;;;;;;;18.83;3.83;;;16.90;99.90;;;;;;7386149;19;20006;-78
2024/02/16 07:08:41;;;;;;;10.88;3.70;;;17.00;99.90;;;;;;7408232;19;20035;-79
2024/02/16 07:11:11;;;;;;;;;;;17.00;99.90;;;;;;7388527;19;20011;-79
2024/02/16 07:13:42;;;;;;;12.73;3.45;;;17.10;99.90;;;;;;7388214;19;19920;-78
2024/02/16 07:16:11;;;;;;;17.30;4.10;;;16.90;99.90;;;;;;7389166;19;20062;-78
2024/02/16 07:18:41;;;;;;;19.85;4.05;;;17.00;99.90;;;;;;7388070;19;20014;-79
2024/02/16 07:21:11;;;;;;;16.52;3.90;;;16.90;99.90;;;;;;7389570;19;20003;-77
2024/02/16 07:23:43;;;;;;;15.40;3.72;;;16.90;99.90;;;;;;7405401;19;20236;-78
2024/02/16 07:26:14;;;;;;;19.38;3.45;;;16.90;99.90;;;;;;7382905;19;20006;-79
2024/02/16 07:28:43;;;;;;;13.70;3.38;;;16.90;99.90;;;;;;7384672;19;20015;-79
2024/02/16 07:31:11;;;;;;;18.48;4.25;;;16.70;99.90;;;;;;7385460;19;20131;-78
2024/02/16 07:33:40;;;;;;;8.85;3.25;;;16.80;99.90;;;;;;7383566;19;20047;-79
2024/02/16 07:36:10;;;;;;;14.88;3.65;;;16.80;99.90;;;;;;7385420;19;20071;-80
2024/02/16 07:38:39;;;;;;;16.60;3.75;;;16.80;99.90;;;;;;7403760;19;20055;-80
2024/02/16 07:41:10;;;;;;;18.60;3.70;;;16.90;99.90;;;;;;7384938;19;20393;-80
2024/02/16 07:43:39;;;;;;;13.30;3.28;;;16.90;99.90;;;;;;7386366;19;20020;-79
2024/02/16 07:46:08;;;;;;;10.43;3.70;;;16.70;99.90;;;;;;7384244;19;20118;-78
2024/02/16 07:48:35;;;;;;;16.60;3.38;;;16.90;99.90;;;;;;7385348;19;20022;-79
2024/02/16 07:51:03;;;;;;;15.75;3.22;;;17.00;99.90;;;;;;7404452;19;20035;-79
2024/02/16 07:53:33;;;;;;;8.80;2.70;;;16.90;99.90;;;;;;7381344;19;20252;-78
2024/02/16 07:56:02;;;;;;;8.18;2.88;;;16.90;99.90;;;;;;7385589;19;20018;-79
2024/02/16 07:58:33;;;;;;;14.25;2.70;;;16.90;99.90;;;;;;7386200;19;20007;-80
2024/02/16 08:01:02;;;;;;;11.05;2.33;;;16.90;99.90;;;;;;7384884;19;20300;-78
2024/02/16 08:03:33;;;;;;;11.48;2.67;;;16.90;99.90;;;;;;7385034;19;20065;-78
2024/02/16 08:06:03;;;;;;;8.07;2.15;;;17.00;99.90;;;;;;7405575;19;20362;-78
2024/02/16 08:08:32;;;;;;;8.52;2.03;;;17.10;99.90;;;;;;7384474;19;20015;-79
2024/02/16 08:11:01;;;;;;;10.00;2.17;;;17.10;99.90;;;;;;7380813;19;20015;-77
2024/02/16 08:13:29;;;;;;;16.25;2.58;;;17.20;99.90;;;;;;7383255;19;20024;-78
2024/02/16 08:16:03;;;;;;;13.32;2.15;;;17.00;99.90;;;;;;7384029;19;20283;-79
2024/02/16 08:18:33;;;;;;;9.82;1.90;;;16.90;99.90;;;;;;7384656;19;20021;-79
2024/02/16 08:21:02;;;;;;;5.75;1.90;;;16.90;99.90;;;;;;7401526;19;20023;-77
2024/02/16 08:23:31;;;;;;;9.80;1.80;;;17.00;99.90;;;;;;7380346;19;20368;-77
2024/02/16 08:26:00;;;;;;;8.23;2.00;;;17.10;99.90;;;;;;7378416;19;20007;-78
2024/02/16 08:28:36;;;;;;;5.45;1.70;;;17.10;99.90;;;;;;7381301;19;20007;-81
2024/02/16 08:31:08;;;;;;;5.03;1.55;;;17.10;99.90;;;;;;7384287;19;20005;-79
2024/02/16 08:33:38;;;;;;;14.07;1.60;;;17.20;99.90;;;;;;7385633;19;20014;-81
2024/02/16 08:36:10;;;;;;;10.63;1.80;;;17.30;99.90;;;;;;7404278;19;20003;-77
2024/02/16 08:38:39;;;;;;;6.43;1.27;;;17.30;99.90;;;;;;7384326;19;20019;-78
2024/02/16 08:41:08;;;;;;;4.60;1.60;;;17.30;99.90;;;;;;7383405;19;20076;-79
2024/02/16 08:43:41;;;;;;;8.95;1.83;;;17.30;99.90;;;;;;7382414;19;20016;-80
2024/02/16 08:46:15;;;;;;;5.78;1.45;;;17.30;99.90;;;;;;7384857;19;20013;-81
2024/02/16 08:48:49;;;;;;;9.45;1.73;;;17.10;99.90;;;;;;7385062;19;20385;-82
2024/02/16 08:51:18;;;;;;;6.28;1.85;;;17.20;99.90;;;;;;7391536;19;20011;-79
2024/02/16 08:53:46;;;;;;;9.30;1.90;;;17.20;99.90;;;;;;7416287;19;20459;-78
2024/02/16 08:56:15;;;;;;;9.00;1.90;;;17.20;99.90;;;;;;7389946;19;20018;-79
2024/02/16 08:58:44;;;;;;;9.23;1.40;;;17.20;99.90;;;;;;7394387;19;20035;-78
2024/02/16 09:01:16;;;;;;;12.55;2.13;;;17.20;99.90;;;;;;7395466;19;20011;-78
2024/02/16 09:03:48;;;;;;;14.13;2.15;;;17.30;99.90;;;;;;7384778;19;20006;-79
2024/02/16 09:06:17;;;;;;;11.32;1.65;;;17.40;99.90;;;;;;7404611;19;20027;-80
2024/02/16 09:08:46;;;;;;;3.63;1.40;;;17.30;99.90;;;;;;7383472;19;20114;-80
2024/02/16 09:11:18;;;;;;;10.75;2.05;;;17.30;99.90;;;;;;7387669;19;20019;-80
2024/02/16 09:13:46;;;;;;;7.90;1.80;;;17.30;99.90;;;;;;7385686;19;20002;-79
2024/02/16 09:16:18;;;;;;;11.27;1.73;;;17.20;99.90;;;;;;7381910;19;20006;-78
2024/02/16 09:18:48;;;;;;;11.32;1.55;;;17.30;99.90;;;;;;7382502;19;20123;-78
2024/02/16 09:21:17;;;;;;;6.13;1.48;;;17.40;99.90;;;;;;7405217;19;20006;-78
2024/02/16 09:23:49;;;;;;;12.43;2.00;;;17.30;99.90;;;;;;7384123;19;20358;-80
2024/02/16 09:26:19;;;;;;;10.77;1.60;;;17.20;99.90;;;;;;7380942;19;20016;-80
2024/02/16 09:28:49;;;;;;;9.18;1.90;;;17.10;99.90;;;;;;7383993;19;20014;-79
2024/02/16 09:31:23;;;;;;;8.48;1.92;;;17.00;99.90;;;;;;7383813;19;20009;-85
2024/02/16 09:33:54;;;;;;;9.50;1.65;;;17.10;99.90;;;;;;7382882;19;20014;-78
2024/02/16 09:36:26;;;;;;;10.15;1.85;;;17.20;99.90;;;;;;7381941;19;20027;-76
2024/02/16 09:38:57;;;;;;;8.07;1.95;;;17.20;99.90;;;;;;7400249;19;20086;-77
2024/02/16 09:41:28;;;;;;;7.15;1.95;;;17.20;99.90;;;;;;7379856;19;20007;-78
2024/02/16 09:43:59;;;;;;;;;;;17.20;99.90;;;;;;7380810;19;20007;-79
2024/02/16 09:46:32;;;;;;;9.48;1.73;;;17.30;99.90;;;;;;7380670;19;19969;-79
2024/02/16 09:49:05;;;;;;;16.98;2.20;;;17.20;99.90;;;;;;7384398;19;20040;-78
2024/02/16 09:51:34;;;;;;;8.68;1.65;;;17.20;99.90;;;;;;7380404;19;20290;-77
2024/02/16 09:54:04;;;;;;;14.90;2.25;;;17.20;99.90;;;;;;7398504;19;20229;-76
2024/02/16 09:56:33;;;;;;;7.90;1.98;;;16.90;99.90;;;;;;7381923;19;20074;-79
2024/02/16 09:59:02;;;;;;;6.35;1.67;;;17.00;99.90;;;;;;7381335;19;20037;-79
2024/02/16 10:01:33;;;;;;;9.38;1.88;;;17.00;99.90;;;;;;7382770;19;19999;-78
2024/02/16 10:04:07;;;;;;;;;;;17.00;99.90;;;;;;7383893;19;20023;-78
2024/02/16 10:06:47;;;;;;;13.35;2.17;;;17.00;99.90;;;;;;7380444;19;19907;-79
2024/02/16 10:09:26;;;;;;;17.67;2.22;;;17.00;99.90;;;;;;7402754;19;20378;-78
2024/02/16 10:11:56;;;;;;;8.85;2.40;;;17.00;99.90;;;;;;7379379;19;19998;-78
2024/02/16 10:14:25;;;;;;;13.80;2.47;;;17.10;99.90;;;;;;7379646;19;20062;-79
2024/02/16 10:17:07;;;;;;;6.18;1.88;;;17.10;99.90;;;;;;7379639;19;20022;-77
2024/02/16 10:19:39;;;;;;;;;;;17.10;99.90;;;;;;7380210;19;20098;-78
2024/02/16 10:22:11;;;;;;;10.52;2.25;;;17.20;99.90;;;;;;7379321;19;19915;-78
2024/02/16 10:24:42;;;;;;;10.50;3.05;;;17.20;99.90;;;;;;7378905;19;20014;-79
2024/02/16 10:27:17;;;;;;;4.15;2.85;;;16.80;99.90;;;;;;7399452;19;20040;-78
2024/02/16 10:29:50;;;;;;;7.65;4.40;;;16.60;99.90;;;;;;7379077;19;20066;-79
2024/02/16 10:32:23;;;;;;;12.45;4.72;;;16.40;99.90;;;;;;7377449;19;20066;-77
2024/02/16 10:34:53;;;;;;;7.90;4.93;;;16.00;99.90;;;;;;7381894;19;20003;-77
2024/02/16 10:37:31;;;;;;;8.55;4.95;;;15.70;99.90;;;;;;7379689;19;20034;-83
2024/02/16 10:40:14;;;;;;;8.90;5.50;;;15.50;99.90;;;;;;7402916;19;20086;-83
2024/02/16 10:42:45;;;;;;;8.68;5.70;;;15.60;99.90;;;;;;7384548;19;20035;-80
2024/02/16 10:45:15;;;;;;;8.70;5.70;;;15.80;99.90;;;;;;7405832;19;20099;-82
2024/02/16 10:47:47;;;;;;;7.07;5.27;;;16.10;99.90;;;;;;7378761;19;20110;-80
2024/02/16 10:50:17;;;;;;;8.18;5.53;;;16.00;99.90;;;;;;7382027;19;20717;-82
2024/02/16 10:52:53;;;;;;;13.95;5.53;;;15.80;99.90;;;;;;7390069;19;20046;-82
2024/02/16 10:55:23;;;;;;;14.15;6.20;;;15.60;99.90;;;;;;7391351;19;20002;-82
2024/02/16 10:57:55;;;;;;;9.80;5.93;;;15.90;99.90;;;;;;7389878;19;20000;-80
2024/02/16 11:00:24;;;;;;;11.63;5.72;;;16.10;99.90;;;;;;7407171;19;20006;-80
2024/02/16 11:03:01;;;;;;;6.80;5.10;;;16.00;99.90;;;;;;7386097;19;20010;-80
2024/02/16 11:05:36;;;;;;;9.68;5.70;;;15.90;99.90;;;;;;7388128;19;20071;-80
2024/02/16 11:08:06;;;;;;;10.18;6.28;;;15.90;99.90;;;;;;7384423;19;20006;-78
2024/02/16 11:10:35;;;;;;;10.50;6.35;;;16.10;99.90;;;;;;7385079;19;20003;-79
2024/02/16 11:13:06;;;;;;;12.77;8.02;;;16.30;99.90;;;;;;7384746;19;20078;-80
2024/02/16 11:15:36;;;;;;;12.55;7.38;;;16.40;99.90;;;;;;7392167;19;20007;-79
2024/02/16 11:18:07;;;;;;;18.08;7.28;;;16.40;99.90;;;;;;7406948;19;20007;-79
2024/02/16 11:20:43;;;;;;;13.68;6.70;;;16.50;99.90;;;;;;7400538;19;20377;-81
2024/02/16 11:23:14;;;;;;;11.45;7.40;;;16.50;99.90;;;;;;7406607;19;20006;-77
2024/02/16 11:25:52;;;;;;;;;;;;;;;;;;;;;
2024/02/16 11:28:21;;;;;;;13.75;7.80;;;16.50;99.90;;;;;;7404274;19;20011;-76
2024/02/16 11:30:50;;;;;;;12.50;8.10;;;16.40;99.90;;;;;;7400616;19;20009;-76
2024/02/16 11:33:24;;;;;;;11.45;8.43;;;16.40;99.90;;;;;;7419500;19;20224;-79
2024/02/16 11:35:57;;;;;;;13.88;9.05;;;16.20;99.90;;;;;;7385438;19;20058;-79
2024/02/16 11:38:26;;;;;;;16.20;9.63;;;15.80;99.90;;;;;;7385796;19;19999;-77
2024/02/16 11:41:02;;;;;;;14.45;9.70;;;15.80;99.90;;;;;;7385941;19;20031;-79
2024/02/16 11:43:32;;;;;;;19.42;9.82;;;15.80;99.90;;;;;;7383860;19;20007;-77
2024/02/16 11:46:13;;;;;;;15.25;9.20;;;16.00;99.90;;;;;;7383847;19;20386;-85
2024/02/16 11:57:50;;;;;;;19.63;10.38;;;16.10;99.90;;;;;;7388060;19;20037;-77
2024/02/16 12:00:19;;;;;;;18.25;9.55;;;16.00;99.90;;;;;;7406479;19;20051;-79
2024/02/16 12:02:48;;;;;;;17.33;9.27;;;16.30;99.90;;;;;;7383435;19;20266;-78
2024/02/16 12:05:17;;;;;;;20.48;9.88;;;16.20;99.90;;;;;;7383601;19;20035;-78
2024/02/16 12:07:54;;;;;;;12.45;8.10;;;16.20;99.90;;;;;;7388616;19;20031;-80
2024/02/16 12:10:37;;;;;;;15.63;8.80;;;16.30;99.90;;;;;;7389059;19;20018;-81
2024/02/16 12:13:16;;;;;;;12.60;7.78;;;16.40;99.90;;;;;;7388768;19;20079;-78
2024/02/16 12:15:48;;;;;;;27.45;8.15;;;16.60;99.90;;;;;;7388655;19;20062;-78
2024/02/16 12:18:25;;;;;;;;;;;16.70;99.90;;;;;;7410601;19;20007;-78
2024/02/16 12:21:18;;;;;;;14.18;7.13;;;16.50;99.90;;;;;;7388169;19;19914;-78
2024/02/16 12:23:50;;;;;;;15.65;7.82;;;16.70;99.90;;;;;;7389276;19;20006;-78
2024/02/16 12:26:31;;;;;;;16.35;7.53;;;16.90;99.90;;;;;;7389317;19;20006;-78
2024/02/16 12:29:05;;;;;;;10.70;7.20;;;16.70;99.90;;;;;;7390376;19;20026;-78
2024/02/16 12:31:49;;;;;;;;;;;;;;;;;;;;;
2024/02/16 12:34:20;;;;;;;10.88;6.55;;;16.50;99.90;;;;;;7389792;19;20042;-79
2024/02/16 12:36:51;;;;;;;16.95;7.43;;;16.40;99.90;;;;;;7393034;19;20023;-78
2024/02/16 12:39:35;;;;;;;13.95;6.72;;;16.10;99.90;;;;;;7414502;19;20015;-78
2024/02/16 12:42:10;;;;;;;15.68;6.70;;;16.00;99.90;;;;;;7389356;19;20023;-78
2024/02/16 12:44:49;;;;;;;12.70;6.90;;;16.10;99.90;;;;;;7389469;19;20068;-79
2024/02/16 12:47:20;;;;;;;17.10;6.82;;;16.20;99.90;;;;;;7391206;19;20014;-78
2024/02/16 12:49:50;;;;;;;11.65;6.03;;;16.10;99.90;;;;;;7390525;19;20009;-79
2024/02/16 12:52:34;;;;;;;16.90;6.82;;;16.10;99.90;;;;;;7391691;19;20011;-79
2024/02/16 12:55:09;;;;;;;12.82;6.85;;;16.10;99.90;;;;;;7388595;19;20022;-79
2024/02/16 12:57:39;;;;;;;15.10;6.55;;;16.00;99.90;;;;;;7412182;19;20007;-79
2024/02/16 13:00:14;;;;;;;9.40;6.53;;;16.10;99.90;;;;;;7391039;19;20006;-79
2024/02/16 13:02:45;;;;;;;12.77;6.30;;;16.20;99.90;;;;;;7390340;19;20536;-81
2024/02/16 13:05:14;;;;;;;24.67;6.38;;;16.10;99.90;;;;;;7381442;19;20070;-78
2024/02/16 13:07:43;;;;;;;11.55;5.93;;;16.10;99.90;;;;;;7382901;19;20075;-77
2024/02/16 13:10:13;;;;;;;18.30;5.70;;;16.10;99.90;;;;;;7377895;19;20219;-76
2024/02/16 13:12:42;;;;;;;14.18;6.00;;;16.10;99.90;;;;;;7399246;19;20034;-77
2024/02/16 13:15:14;;;;;;;12.77;5.78;;;16.20;99.90;;;;;;7378090;19;19999;-76
2024/02/16 13:17:42;;;;;;;10.57;5.28;;;16.30;99.90;;;;;;7378530;19;20003;-78
2024/02/16 13:20:12;;;;;;;13.40;5.00;;;16.40;99.90;;;;;;7381439;19;20035;-78